createdAt,value
2019-04-25T00:01:57.333Z,12.43
2019-04-25T00:04:42.611Z,12.57
2019-04-25T00:07:11.954Z,12.86
2019-04-25T00:09:43.077Z,12.62
2019-04-25T00:12:14.690Z,12.43
2019-04-25T00:14:44.134Z,12.47
2019-04-25T00:17:13.100Z,12.50
2019-04-25T00:19:43.341Z,12.78
2019-04-25T00:22:16.700Z,12.87
2019-04-25T00:24:51.562Z,12.84
2019-04-25T00:27:21.686Z,12.67
2019-04-25T00:29:51.879Z,12.45
2019-04-25T00:32:21.638Z,12.04
2019-04-25T00:34:55.786Z,11.95
2019-04-25T00:37:24.448Z,12.09
2019-04-25T00:39:55.790Z,11.97
2019-04-25T00:42:24.525Z,12.16
2019-04-25T00:44:53.530Z,12.12
2019-04-25T00:47:22.280Z,12.23
2019-04-25T00:49:52.391Z,11.99
2019-04-25T00:52:22.759Z,12.15
2019-04-25T00:54:52.604Z,12.32
2019-04-25T00:57:22.502Z,12.33
2019-04-25T00:59:58.730Z,12.47
2019-04-25T01:02:35.169Z,12.37
2019-04-25T01:05:05.057Z,12.21
2019-04-25T01:07:34.530Z,11.93
2019-04-25T01:10:05.590Z,11.86
2019-04-25T01:12:34.242Z,11.97
2019-04-25T01:15:22.412Z,11.94
2019-04-25T01:17:52.210Z,11.74
2019-04-25T01:20:21.590Z,11.73
2019-04-25T01:22:51.360Z,11.70
2019-04-25T01:25:20.209Z,11.65
2019-04-25T01:27:49.717Z,11.93
2019-04-25T01:30:20.386Z,11.89
2019-04-25T01:32:50.619Z,12.05
2019-04-25T01:35:20.900Z,12.01
2019-04-25T01:37:51.184Z,11.96
2019-04-25T01:40:37.434Z,11.75
2019-04-25T01:43:23.706Z,11.86
2019-04-25T01:45:54.040Z,11.88
2019-04-25T01:48:23.497Z,11.81
2019-04-25T01:50:52.825Z,11.73
2019-04-25T01:53:24.137Z,11.54
2019-04-25T01:56:02.374Z,11.32
2019-04-25T01:58:25.521Z,11.37
2019-04-25T02:00:56.055Z,11.13
2019-04-25T02:03:27.101Z,11.17
2019-04-25T02:05:56.156Z,11.37
2019-04-25T02:08:25.788Z,11.47
2019-04-25T02:10:58.994Z,11.27
2019-04-25T02:13:33.626Z,11.17
2019-04-25T02:16:05.984Z,11.32
2019-04-25T02:18:34.624Z,11.25
2019-04-25T02:21:04.516Z,11.59
2019-04-25T02:23:34.148Z,11.56
2019-04-25T02:26:13.421Z,11.59
2019-04-25T02:28:33.805Z,11.43
2019-04-25T02:31:08.216Z,11.34
2019-04-25T02:33:40.783Z,11.18
2019-04-25T02:36:09.505Z,10.91
2019-04-25T02:38:39.621Z,10.92
2019-04-25T02:41:09.120Z,11.14
2019-04-25T02:43:38.189Z,11.13
2019-04-25T02:46:11.801Z,11.05
2019-04-25T02:48:51.236Z,11.05
2019-04-25T02:51:30.863Z,11.08
2019-04-25T02:54:07.833Z,11.05
2019-04-25T02:56:38.674Z,11.41
2019-04-25T02:59:08.798Z,11.13
2019-04-25T03:01:36.238Z,10.89
2019-04-25T03:04:10.719Z,10.73
2019-04-25T03:06:36.314Z,10.73
2019-04-25T03:09:09.818Z,10.84
2019-04-25T03:11:38.831Z,10.77
2019-04-25T03:14:10.029Z,10.80
2019-04-25T03:16:38.095Z,10.91
2019-04-25T03:19:26.330Z,10.60
2019-04-25T03:21:56.564Z,10.97
2019-04-25T03:24:27.159Z,11.09
2019-04-25T03:26:55.999Z,10.84
2019-04-25T03:29:24.879Z,10.58
2019-04-25T03:31:56.096Z,10.48
2019-04-25T03:34:29.246Z,10.74
2019-04-25T03:36:57.914Z,10.76
2019-04-25T03:39:27.113Z,10.45
2019-04-25T03:41:56.028Z,10.53
2019-04-25T03:44:25.374Z,10.68
2019-04-25T03:46:54.071Z,10.13
2019-04-25T03:49:23.853Z,9.94
2019-04-25T03:51:53.843Z,10.23
2019-04-25T03:54:23.588Z,10.33
2019-04-25T03:56:58.660Z,10.62
2019-04-25T03:59:27.339Z,10.80
2019-04-25T04:01:56.291Z,10.88
2019-04-25T04:04:25.312Z,10.96
2019-04-25T04:06:54.014Z,10.99
2019-04-25T04:09:24.032Z,11.44
2019-04-25T04:11:53.538Z,11.18
2019-04-25T04:14:23.957Z,11.61
2019-04-25T04:17:10.884Z,11.74
2019-04-25T04:19:57.211Z,11.81
2019-04-25T04:22:30.854Z,11.39
2019-04-25T04:25:27.157Z,11.57
2019-04-25T04:28:00.360Z,11.27
2019-04-25T04:30:45.377Z,11.53
2019-04-25T04:33:29.612Z,11.42
2019-04-25T04:35:49.854Z,11.50
2019-04-25T04:38:18.697Z,11.55
2019-04-25T04:40:49.484Z,11.56
2019-04-25T04:43:23.950Z,11.80
2019-04-25T04:45:54.163Z,12.00
2019-04-25T04:48:24.315Z,11.98
2019-04-25T04:50:58.545Z,12.31
2019-04-25T04:53:29.203Z,12.52
2019-04-25T04:56:04.178Z,12.65
2019-04-25T04:58:40.008Z,12.47
2019-04-25T05:01:08.666Z,12.32
2019-04-25T05:04:13.046Z,12.49
2019-04-25T05:07:01.222Z,12.40
2019-04-25T05:09:29.974Z,12.44
2019-04-25T05:11:58.660Z,12.86
2019-04-25T05:14:27.511Z,12.56
2019-04-25T05:16:59.366Z,12.72
2019-04-25T05:19:30.851Z,12.83
2019-04-25T05:21:59.612Z,12.93
2019-04-25T05:24:28.323Z,13.20
2019-04-25T05:26:57.019Z,13.61
2019-04-25T05:29:26.675Z,13.53
2019-04-25T05:31:58.307Z,13.66
2019-04-25T05:34:27.043Z,14.10
2019-04-25T05:36:56.336Z,14.19
2019-04-25T05:39:26.972Z,14.34
2019-04-25T05:42:00.334Z,14.28
2019-04-25T05:44:28.995Z,14.98
2019-04-25T05:46:57.661Z,15.41
2019-04-25T05:49:29.611Z,15.87
2019-04-25T05:51:59.506Z,16.02
2019-04-25T05:54:30.050Z,15.70
2019-04-25T05:57:05.237Z,16.17
2019-04-25T05:59:35.422Z,16.51
2019-04-25T06:02:07.396Z,16.06
2019-04-25T06:04:41.167Z,15.84
2019-04-25T06:07:14.364Z,16.54
2019-04-25T06:09:48.639Z,17.00
2019-04-25T06:12:26.208Z,17.68
2019-04-25T06:14:56.363Z,17.69
2019-04-25T06:17:30.151Z,17.56
2019-04-25T06:20:04.426Z,17.21
2019-04-25T06:22:50.836Z,16.86
2019-04-25T06:25:29.758Z,17.49
2019-04-25T06:27:58.566Z,18.43
2019-04-25T06:30:31.703Z,18.67
2019-04-25T06:33:00.579Z,17.41
2019-04-25T06:35:29.571Z,16.60
2019-04-25T06:37:58.319Z,16.92
2019-04-25T06:40:37.130Z,17.50
2019-04-25T06:43:13.632Z,18.11
2019-04-25T06:46:00.423Z,18.44
2019-04-25T06:48:39.594Z,17.69
2019-04-25T06:51:09.764Z,16.71
2019-04-25T06:53:38.512Z,16.71
2019-04-25T06:56:08.634Z,17.81
2019-04-25T06:58:39.283Z,17.99
2019-04-25T07:01:08.042Z,17.99
2019-04-25T07:03:41.763Z,18.26
2019-04-25T07:06:12.929Z,17.75
2019-04-25T07:08:43.001Z,18.88
2019-04-25T07:11:13.983Z,19.14
2019-04-25T07:13:44.006Z,19.01
2019-04-25T07:16:13.397Z,19.85
2019-04-25T07:18:44.115Z,20.01
2019-04-25T07:21:14.294Z,19.06
2019-04-25T07:24:04.160Z,19.79
2019-04-25T07:26:47.187Z,20.11
2019-04-25T07:29:20.250Z,19.72
2019-04-25T07:32:06.927Z,19.85
2019-04-25T07:34:35.597Z,20.26
2019-04-25T07:37:04.249Z,20.46
2019-04-25T07:39:34.374Z,20.28
2019-04-25T07:42:04.147Z,20.65
2019-04-25T07:44:41.997Z,20.40
2019-04-25T07:47:05.330Z,20.76
2019-04-25T07:49:34.839Z,20.63
2019-04-25T07:52:03.824Z,20.43
2019-04-25T07:54:34.051Z,20.60
2019-04-25T07:57:03.617Z,20.15
2019-04-25T07:59:34.812Z,19.85
2019-04-25T08:02:03.468Z,19.87
2019-04-25T08:04:32.205Z,20.33
2019-04-25T08:07:00.874Z,20.15
2019-04-25T08:09:29.620Z,20.87
2019-04-25T08:11:58.288Z,20.96
2019-04-25T08:14:32.065Z,20.83
2019-04-25T08:17:08.126Z,20.42
2019-04-25T08:19:37.177Z,21.12
2019-04-25T08:22:07.688Z,21.36
2019-04-25T08:24:46.659Z,21.34
2019-04-25T08:27:15.313Z,21.18
2019-04-25T08:29:45.560Z,20.75
2019-04-25T08:32:15.442Z,21.27
2019-04-25T08:34:46.723Z,21.38
2019-04-25T08:37:18.976Z,21.37
2019-04-25T08:39:45.956Z,21.30
2019-04-25T08:42:15.163Z,21.79
2019-04-25T08:44:44.942Z,22.16
2019-04-25T08:47:14.505Z,21.92
2019-04-25T08:49:49.611Z,21.80
2019-04-25T08:52:21.653Z,21.91
2019-04-25T08:55:04.328Z,22.19
2019-04-25T08:57:50.233Z,22.23
2019-04-25T09:00:24.116Z,22.57
2019-04-25T09:02:54.499Z,22.47
2019-04-25T09:05:37.427Z,22.77
2019-04-25T09:08:06.632Z,22.46
2019-04-25T09:10:41.278Z,22.05
2019-04-25T09:13:10.238Z,22.57
2019-04-25T09:15:39.456Z,22.39
2019-04-25T09:18:08.302Z,22.69
2019-04-25T09:20:46.643Z,22.54
2019-04-25T09:23:47.992Z,22.54
2019-04-25T09:26:30.227Z,22.76
2019-04-25T09:28:58.968Z,23.40
2019-04-25T09:31:29.479Z,23.19
2019-04-25T09:34:09.515Z,22.90
2019-04-25T09:36:38.324Z,23.04
2019-04-25T09:39:26.529Z,23.14
2019-04-25T09:41:55.315Z,23.81
2019-04-25T09:44:36.147Z,24.01
2019-04-25T09:47:06.327Z,24.39
2019-04-25T09:49:36.909Z,23.59
2019-04-25T09:52:08.180Z,23.67
2019-04-25T09:54:38.592Z,23.65
2019-04-25T09:57:13.437Z,23.99
2019-04-25T09:59:43.651Z,24.64
2019-04-25T10:02:13.448Z,25.09
2019-04-25T10:04:42.192Z,24.85
2019-04-25T10:07:12.003Z,24.66
2019-04-25T10:10:03.651Z,24.40
2019-04-25T10:12:41.325Z,24.93
2019-04-25T10:15:43.012Z,25.15
2019-04-25T10:18:18.466Z,24.81
2019-04-25T10:20:54.263Z,25.25
2019-04-25T10:24:00.733Z,25.57
2019-04-25T10:26:29.943Z,25.29
2019-04-25T10:29:03.598Z,24.80
2019-04-25T10:31:33.903Z,25.43
2019-04-25T10:34:03.819Z,25.30
2019-04-25T10:36:33.642Z,25.52
2019-04-25T10:39:08.625Z,24.89
2019-04-25T10:41:35.860Z,25.33
2019-04-25T10:44:05.616Z,25.59
2019-04-25T10:46:45.681Z,25.53
2019-04-25T10:49:14.501Z,25.31
2019-04-25T10:51:44.723Z,25.07
2019-04-25T10:54:14.564Z,25.66
2019-04-25T10:56:45.679Z,25.98
2019-04-25T10:59:15.705Z,25.90
2019-04-25T11:01:46.021Z,25.83
2019-04-25T11:04:16.514Z,25.35
2019-04-25T11:06:45.599Z,25.42
2019-04-25T11:09:19.110Z,25.24
2019-04-25T11:11:48.163Z,24.72
2019-04-25T11:14:23.943Z,24.10
2019-04-25T11:16:55.051Z,24.80
2019-04-25T11:19:23.960Z,24.93
2019-04-25T11:21:53.818Z,24.63
2019-04-25T11:24:24.539Z,24.57
2019-04-25T11:26:55.147Z,24.54
2019-04-25T11:29:24.275Z,24.84
2019-04-25T11:31:53.467Z,25.18
2019-04-25T11:34:23.052Z,24.46
2019-04-25T11:36:51.711Z,24.29
2019-04-25T11:39:28.042Z,24.45
2019-04-25T11:41:57.023Z,24.47
2019-04-25T11:44:25.697Z,23.76
2019-04-25T11:46:54.421Z,23.84
2019-04-25T11:49:23.895Z,23.64
2019-04-25T11:51:52.710Z,23.67
2019-04-25T11:54:21.376Z,23.24
2019-04-25T11:56:50.781Z,23.35
2019-04-25T11:59:23.540Z,24.08
2019-04-25T12:01:52.439Z,23.59
2019-04-25T12:04:21.337Z,23.50
2019-04-25T12:06:50.074Z,23.88
2019-04-25T12:09:20.238Z,23.36
2019-04-25T12:11:49.909Z,23.83
2019-04-25T12:14:18.906Z,23.88
2019-04-25T12:16:49.080Z,24.03
2019-04-25T12:19:18.256Z,23.91
2019-04-25T12:21:46.858Z,24.14
2019-04-25T12:24:15.601Z,24.06
2019-04-25T12:26:46.533Z,24.09
2019-04-25T12:29:14.856Z,24.54
2019-04-25T12:31:46.412Z,24.61
2019-04-25T12:34:15.009Z,24.43
2019-04-25T12:36:44.408Z,24.41
2019-04-25T12:39:13.995Z,24.37
2019-04-25T12:41:46.750Z,24.32
2019-04-25T12:44:33.732Z,24.49
2019-04-25T12:47:19.441Z,24.50
2019-04-25T12:49:50.583Z,24.62
2019-04-25T12:52:19.424Z,24.35
2019-04-25T12:54:49.765Z,24.71
2019-04-25T12:57:19.874Z,24.66
2019-04-25T12:59:51.124Z,24.93
2019-04-25T13:02:23.554Z,25.32
2019-04-25T13:05:04.350Z,25.42
2019-04-25T13:07:32.821Z,25.89
2019-04-25T13:10:01.470Z,25.15
2019-04-25T13:12:30.193Z,25.01
2019-04-25T13:14:58.898Z,24.64
2019-04-25T13:17:27.610Z,23.94
2019-04-25T13:19:56.736Z,24.08
2019-04-25T13:22:27.368Z,24.03
2019-04-25T13:25:07.101Z,24.47
2019-04-25T13:27:39.980Z,24.49
2019-04-25T13:30:19.910Z,24.80
2019-04-25T13:32:59.140Z,24.34
2019-04-25T13:35:29.922Z,24.51
2019-04-25T13:37:59.330Z,24.40
2019-04-25T13:40:28.066Z,23.72
2019-04-25T13:42:57.975Z,23.40
2019-04-25T13:45:26.950Z,23.52
2019-04-25T13:47:57.313Z,23.55
2019-04-25T13:50:26.164Z,23.63
2019-04-25T13:52:54.881Z,24.00
2019-04-25T13:55:24.028Z,24.19
2019-04-25T13:57:54.833Z,23.83
2019-04-25T14:00:26.070Z,23.63
2019-04-25T14:02:54.825Z,23.72
2019-04-25T14:05:24.938Z,23.42
2019-04-25T14:07:54.720Z,23.34
2019-04-25T14:10:25.179Z,23.63
2019-04-25T14:12:54.695Z,24.00
2019-04-25T14:15:25.448Z,23.96
2019-04-25T14:17:55.920Z,24.18
2019-04-25T14:20:32.690Z,24.54
2019-04-25T14:23:03.447Z,24.38
2019-04-25T14:25:33.118Z,24.38
2019-04-25T14:28:02.220Z,24.59
2019-04-25T14:30:34.217Z,24.85
2019-04-25T14:33:08.794Z,24.68
2019-04-25T14:35:37.666Z,25.00
2019-04-25T14:38:06.505Z,24.61
2019-04-25T14:40:35.229Z,24.75
2019-04-25T14:43:05.198Z,24.88
2019-04-25T14:45:44.011Z,24.52
2019-04-25T14:48:04.889Z,24.44
2019-04-25T14:50:34.117Z,24.18
2019-04-25T14:53:03.081Z,24.28
2019-04-25T14:55:36.405Z,24.44
2019-04-25T14:58:06.717Z,24.34
2019-04-25T15:00:42.759Z,24.03
2019-04-25T15:03:11.920Z,24.13
2019-04-25T15:05:41.957Z,24.26
2019-04-25T15:08:11.030Z,24.37
2019-04-25T15:10:40.949Z,24.05
2019-04-25T15:13:09.980Z,23.60
2019-04-25T15:15:38.625Z,23.89
2019-04-25T15:18:10.504Z,23.37
2019-04-25T15:20:39.134Z,23.45
2019-04-25T15:23:07.838Z,23.63
2019-04-25T15:25:37.035Z,23.75
2019-04-25T15:28:05.728Z,23.64
2019-04-25T15:30:36.029Z,23.77
2019-04-25T15:33:04.907Z,23.73
2019-04-25T15:35:35.199Z,23.34
2019-04-25T15:38:08.329Z,23.34
2019-04-25T15:40:41.669Z,23.27
2019-04-25T15:43:14.893Z,23.05
2019-04-25T15:45:45.200Z,22.91
2019-04-25T15:48:14.036Z,23.01
2019-04-25T15:50:43.074Z,23.03
2019-04-25T15:53:11.748Z,22.91
2019-04-25T15:55:40.812Z,22.78
2019-04-25T15:58:09.611Z,22.97
2019-04-25T16:00:38.964Z,22.95
2019-04-25T16:03:07.733Z,22.76
2019-04-25T16:05:36.994Z,22.54
2019-04-25T16:08:06.305Z,22.55
2019-04-25T16:10:34.980Z,22.62
2019-04-25T16:13:04.032Z,22.56
2019-04-25T16:15:33.220Z,22.35
2019-04-25T16:18:02.044Z,22.23
2019-04-25T16:20:31.466Z,22.08
2019-04-25T16:23:00.418Z,21.88
2019-04-25T16:25:29.969Z,21.87
2019-04-25T16:27:58.879Z,21.82
2019-04-25T16:30:32.548Z,21.81
2019-04-25T16:33:01.236Z,21.97
2019-04-25T16:35:30.943Z,21.73
2019-04-25T16:38:00.051Z,21.65
2019-04-25T16:40:29.835Z,21.67
2019-04-25T16:43:14.408Z,21.58
2019-04-25T16:45:46.091Z,21.80
2019-04-25T16:48:19.927Z,21.43
2019-04-25T16:50:48.639Z,21.22
2019-04-25T16:53:17.342Z,21.12
2019-04-25T16:55:45.879Z,21.09
2019-04-25T16:58:15.060Z,21.01
2019-04-25T17:00:48.273Z,21.05
2019-04-25T17:03:17.707Z,21.04
2019-04-25T17:05:46.557Z,20.78
2019-04-25T17:08:15.217Z,20.70
2019-04-25T17:10:47.198Z,20.65
2019-04-25T17:13:16.126Z,20.61
2019-04-25T17:15:46.578Z,20.54
2019-04-25T17:18:22.831Z,20.46
2019-04-25T17:21:05.076Z,20.57
2019-04-25T17:23:34.526Z,20.44
2019-04-25T17:26:04.551Z,20.39
2019-04-25T17:28:34.985Z,20.29
2019-04-25T17:31:20.667Z,20.28
2019-04-25T17:33:50.976Z,20.35
2019-04-25T17:36:38.639Z,20.37
2019-04-25T17:39:27.604Z,20.55
2019-04-25T17:41:56.380Z,20.56
2019-04-25T17:44:25.063Z,20.27
2019-04-25T17:47:05.653Z,20.27
2019-04-25T17:49:24.027Z,20.55
2019-04-25T17:51:58.824Z,20.54
2019-04-25T17:54:27.482Z,20.26
2019-04-25T17:56:56.418Z,20.25
2019-04-25T17:59:25.161Z,20.30
2019-04-25T18:01:59.423Z,19.99
2019-04-25T18:04:28.128Z,20.10
2019-04-25T18:06:56.829Z,20.02
2019-04-25T18:09:25.488Z,19.94
2019-04-25T18:11:54.201Z,19.79
2019-04-25T18:14:22.912Z,19.83
2019-04-25T18:16:57.767Z,19.81
2019-04-25T18:19:28.300Z,19.93
2019-04-25T18:21:58.631Z,19.97
2019-04-25T18:24:41.124Z,19.79
2019-04-25T18:27:29.790Z,19.61
2019-04-25T18:30:00.502Z,19.61
2019-04-25T18:32:31.640Z,19.42
2019-04-25T18:35:02.005Z,19.38
2019-04-25T18:37:32.409Z,19.48
2019-04-25T18:40:02.697Z,19.37
2019-04-25T18:42:36.512Z,19.19
2019-04-25T18:45:08.244Z,19.01
2019-04-25T18:47:38.277Z,18.78
2019-04-25T18:50:08.365Z,18.51
2019-04-25T18:52:45.019Z,18.90
2019-04-25T18:55:20.541Z,18.57
2019-04-25T18:57:53.838Z,18.88
2019-04-25T19:00:29.748Z,19.04
2019-04-25T19:03:06.197Z,18.67
2019-04-25T19:05:36.535Z,18.66
2019-04-25T19:08:06.602Z,18.79
2019-04-25T19:10:35.420Z,18.83
2019-04-25T19:13:12.494Z,18.87
2019-04-25T19:15:34.559Z,18.47
2019-04-25T19:18:03.478Z,18.53
2019-04-25T19:20:32.247Z,18.50
2019-04-25T19:23:01.002Z,18.61
2019-04-25T19:25:29.710Z,18.66
2019-04-25T19:27:58.363Z,18.64
2019-04-25T19:30:27.109Z,18.29
2019-04-25T19:32:55.798Z,18.50
2019-04-25T19:35:24.569Z,18.26
2019-04-25T19:37:55.864Z,18.27
2019-04-25T19:40:30.427Z,18.19
2019-04-25T19:43:03.782Z,18.19
2019-04-25T19:45:33.379Z,18.07
2019-04-25T19:48:02.294Z,17.70
2019-04-25T19:50:30.949Z,17.66
2019-04-25T19:52:59.658Z,17.66
2019-04-25T19:55:28.336Z,17.55
2019-04-25T19:57:57.077Z,17.35
2019-04-25T20:00:25.844Z,17.53
2019-04-25T20:03:11.228Z,17.42
2019-04-25T20:05:44.710Z,17.39
2019-04-25T20:08:17.984Z,17.27
2019-04-25T20:10:48.943Z,17.38
2019-04-25T20:13:17.860Z,16.95
2019-04-25T20:15:47.538Z,16.84
2019-04-25T20:18:16.715Z,16.80
2019-04-25T20:20:46.025Z,16.64
2019-04-25T20:23:14.943Z,16.54
2019-04-25T20:25:44.883Z,16.58
2019-04-25T20:28:14.025Z,16.41
2019-04-25T20:30:42.796Z,16.53
2019-04-25T20:33:11.506Z,16.51
2019-04-25T20:35:40.175Z,16.60
2019-04-25T20:38:08.917Z,16.58
2019-04-25T20:40:37.656Z,16.60
2019-04-25T20:43:06.324Z,16.65
2019-04-25T20:45:34.986Z,16.63
2019-04-25T20:48:03.799Z,16.58
2019-04-25T20:50:32.531Z,16.58
2019-04-25T20:53:01.174Z,16.85
2019-04-25T20:55:29.790Z,16.79
2019-04-25T20:57:58.370Z,16.68
2019-04-25T21:00:43.093Z,16.45
2019-04-25T21:03:11.863Z,16.45
2019-04-25T21:05:41.677Z,16.40
2019-04-25T21:08:10.366Z,16.19
2019-04-25T21:10:39.039Z,16.06
2019-04-25T21:13:09.338Z,15.94
2019-04-25T21:15:56.243Z,15.82
2019-04-25T21:18:26.665Z,15.77
2019-04-25T21:20:55.251Z,15.76
2019-04-25T21:23:24.166Z,15.58
2019-04-25T21:25:53.003Z,15.43
2019-04-25T21:28:21.736Z,15.40
2019-04-25T21:30:51.377Z,15.33
2019-04-25T21:33:20.748Z,15.38
2019-04-25T21:35:50.867Z,15.44
2019-04-25T21:38:19.891Z,15.41
2019-04-25T21:40:59.927Z,15.35
2019-04-25T21:43:35.674Z,15.26
2019-04-25T21:46:04.795Z,15.16
2019-04-25T21:48:33.818Z,15.10
2019-04-25T21:51:04.528Z,14.97
2019-04-25T21:53:33.209Z,14.91
2019-04-25T21:56:02.058Z,14.86
2019-04-25T21:58:33.899Z,14.91
2019-04-25T22:01:04.559Z,15.00
2019-04-25T22:03:33.282Z,15.00
2019-04-25T22:06:02.936Z,14.88
2019-04-25T22:08:31.956Z,14.84
2019-04-25T22:11:01.330Z,14.89
2019-04-25T22:13:30.193Z,14.90
2019-04-25T22:15:59.679Z,14.87
2019-04-25T22:18:29.312Z,14.78
2019-04-25T22:20:58.350Z,14.62
2019-04-25T22:23:27.358Z,14.62
2019-04-25T22:25:58.807Z,14.53
2019-04-25T22:28:28.082Z,14.37
2019-04-25T22:30:59.162Z,14.37
2019-04-25T22:33:29.886Z,14.40
2019-04-25T22:36:00.406Z,14.41
2019-04-25T22:38:29.284Z,14.31
2019-04-25T22:40:58.014Z,14.31
2019-04-25T22:43:29.875Z,14.45
2019-04-25T22:46:00.808Z,14.44
2019-04-25T22:48:35.200Z,14.49
2019-04-25T22:51:03.883Z,14.49
2019-04-25T22:53:34.095Z,14.44
2019-04-25T22:56:03.155Z,14.32
2019-04-25T22:58:31.820Z,14.13
2019-04-25T23:01:01.876Z,14.28
2019-04-25T23:03:35.611Z,14.32
2019-04-25T23:06:04.321Z,14.59
2019-04-25T23:08:34.315Z,14.45
2019-04-25T23:11:04.081Z,14.31
2019-04-25T23:13:32.899Z,14.27
2019-04-25T23:16:02.539Z,14.56
2019-04-25T23:18:32.398Z,14.40
2019-04-25T23:21:01.283Z,14.18
2019-04-25T23:23:32.338Z,14.23
2019-04-25T23:26:03.518Z,13.99
2019-04-25T23:28:40.944Z,13.82
2019-04-25T23:31:11.245Z,13.66
2019-04-25T23:33:40.012Z,13.82
2019-04-25T23:36:09.348Z,14.04
2019-04-25T23:38:38.024Z,13.85
2019-04-25T23:41:09.375Z,13.73
2019-04-25T23:43:38.318Z,13.76
2019-04-25T23:46:08.192Z,13.55
2019-04-25T23:48:37.083Z,13.60
2019-04-25T23:51:06.359Z,14.03
2019-04-25T23:53:35.566Z,13.94
2019-04-25T23:56:04.825Z,13.83
2019-04-25T23:58:33.602Z,13.80
